Airfield :
LOGIN :

Register | Disclaimer

   EN    FR    IT 

 










Legend :    VFR   Marginal VFR   IFR   Intensive IFR   Very Intensive IFR
Visi :
Ceiling :
>= 8 km
>= 3000ft
5 to 8 km
1000 to 3000 ft
1500m to 5 km
500 to 1000 ft
800 to 1500m
200 to 500 ft
< 800m
< 200 ft
Symbols :   Thunderstorms  Fog  Heavy snow  Heavy precipitations  Wind > 20 kt
SIGMETs :     Misc.  Thunderstorms  Icing  Turbulence  Mountain Waves  Volcanic Ashes







- Airport Elevation : 1339 ft


ETHN - Niederstetten

CURRENT METAR :
  • 201901Z 22014KT 4000 -DZRA BKN005 BKN015 02/01 Q1015 YLO

EXPIRED METARs :
  • 201844Z 22014G25KT 5000 -DZRA BKN005 BKN015 02/01 Q1015 YLO
  • 201820Z 22011KT 5000 -DZRA BKN007 BKN015 02/01 Q1016 GRN
  • 201720Z 23009KT 7000 -DZ BKN016 BKN032 02/M00 Q1016 WHT
  • 201620Z 23009KT 9999 -DZ BKN020 BKN035 02/M00 Q1017 WHT

TAF AMD TAF ETHN
Valid from the 20 at 15:00 until the 21 at 00:00 UTC


201546Z 2015/2024 25010KT 9999 NSW SCT015 BKN030 BKN100
TEMPO 2015/2020 26015G28KT 3000 -SNRA BKN007 OVC015
BECMG 2019/2021 26018G30KT 7000 -RA BKN003 OVC007 CANCEL 1600
No reported NOTAMs for that airfield.



MET'MAP, your aeronautical weather chart ! - Copyright ORBIFLY December 2007 - Disclaimer

ORBIFLY MET'MAP TEAM :

Programming & Development : Alexandra Zaïnal
Concept & Development : Baudouin d'Aumeries
Co-Development & Prog : Marc-Olivier Méhu
Technical & hardware support : Manuel Goepfert

Contact : metmap@orbifly.com




SOURCES & CREDITS :

   NOAA